createdAt,value
2023-01-17T00:00:48.066Z,7.30
2023-01-17T00:03:17.033Z,8.28
2023-01-17T00:06:05.121Z,8.80
2023-01-17T00:08:54.812Z,7.87
2023-01-17T00:11:24.690Z,8.63
2023-01-17T00:13:53.806Z,8.70
2023-01-17T00:16:22.857Z,8.95
2023-01-17T00:19:10.254Z,8.30
2023-01-17T00:21:57.695Z,7.85
2023-01-17T00:24:45.078Z,9.13
2023-01-17T00:27:13.590Z,9.13
2023-01-17T00:29:42.648Z,8.18
2023-01-17T00:32:12.604Z,8.48
2023-01-17T00:34:43.831Z,7.85
2023-01-17T00:37:12.624Z,9.10
2023-01-17T00:39:42.975Z,8.55
2023-01-17T00:42:12.228Z,8.13
2023-01-17T00:44:59.714Z,8.80
2023-01-17T00:47:48.242Z,8.20
2023-01-17T00:50:37.268Z,8.28
2023-01-17T00:53:26.190Z,7.60
2023-01-17T00:56:21.383Z,8.73
2023-01-17T00:59:09.167Z,7.62
2023-01-17T01:01:58.107Z,7.65
2023-01-17T01:04:45.863Z,7.30
2023-01-17T01:07:35.071Z,8.35
2023-01-17T01:10:26.499Z,7.72
2023-01-17T01:13:16.502Z,8.13
2023-01-17T01:16:05.019Z,8.40
2023-01-17T01:18:53.311Z,8.20
2023-01-17T01:21:42.296Z,8.78
2023-01-17T01:24:30.320Z,8.85
2023-01-17T01:27:18.829Z,7.70
2023-01-17T01:30:06.934Z,7.90
2023-01-17T01:32:54.911Z,7.90
2023-01-17T01:35:27.966Z,7.70
2023-01-17T01:37:57.784Z,8.13
2023-01-17T01:40:27.029Z,8.25
2023-01-17T01:42:59.759Z,7.67
2023-01-17T01:45:32.442Z,8.33
2023-01-17T01:48:06.611Z,8.45
2023-01-17T01:50:37.938Z,8.00
2023-01-17T01:53:07.545Z,8.30
2023-01-17T01:55:40.291Z,7.92
2023-01-17T01:58:20.687Z,8.65
2023-01-17T02:00:50.222Z,9.03
2023-01-17T02:03:26.919Z,8.50
2023-01-17T02:05:58.265Z,9.13
2023-01-17T02:08:29.020Z,8.98
2023-01-17T02:10:59.486Z,9.20
2023-01-17T02:13:31.339Z,9.25
2023-01-17T02:16:13.308Z,9.08
2023-01-17T02:19:24.249Z,8.75
2023-01-17T02:22:29.818Z,8.45
2023-01-17T02:25:06.834Z,9.23
2023-01-17T02:27:42.812Z,7.97
2023-01-17T02:30:41.798Z,8.00
2023-01-17T02:33:42.807Z,8.95
2023-01-17T02:36:26.617Z,8.75
2023-01-17T02:39:06.857Z,8.33
2023-01-17T02:41:43.341Z,8.58
2023-01-17T02:44:16.185Z,8.43
2023-01-17T02:46:53.538Z,7.92
2023-01-17T02:49:28.341Z,8.08
2023-01-17T02:52:21.521Z,8.08
2023-01-17T02:55:34.489Z,7.58
2023-01-17T02:58:31.353Z,8.15
2023-01-17T03:01:30.514Z,8.40
2023-01-17T03:04:08.327Z,9.00
2023-01-17T03:06:43.921Z,8.65
2023-01-17T03:09:15.001Z,9.28
2023-01-17T03:11:45.806Z,8.33
2023-01-17T03:14:15.408Z,9.00
2023-01-17T03:16:45.695Z,8.95
2023-01-17T03:19:16.098Z,8.55
2023-01-17T03:21:46.909Z,8.88
2023-01-17T03:24:17.424Z,8.48
2023-01-17T03:26:47.993Z,8.93
2023-01-17T03:29:17.584Z,8.83
2023-01-17T03:31:46.509Z,8.30
2023-01-17T03:34:15.356Z,8.40
2023-01-17T03:36:44.891Z,8.88
2023-01-17T03:39:14.070Z,7.42
2023-01-17T03:41:43.057Z,8.83
2023-01-17T03:44:13.528Z,8.48
2023-01-17T03:46:44.648Z,8.58
2023-01-17T03:49:13.371Z,8.55
2023-01-17T03:51:42.895Z,8.13
2023-01-17T03:54:12.214Z,7.90
2023-01-17T03:56:43.617Z,8.20
2023-01-17T03:59:13.475Z,7.75
2023-01-17T04:01:42.675Z,7.95
2023-01-17T04:04:11.762Z,8.08
2023-01-17T04:06:41.885Z,7.50
2023-01-17T04:09:11.423Z,8.38
2023-01-17T04:11:41.253Z,8.98
2023-01-17T04:14:10.443Z,8.45
2023-01-17T04:16:40.026Z,8.80
2023-01-17T04:19:12.696Z,8.43
2023-01-17T04:21:42.119Z,9.03
2023-01-17T04:24:11.297Z,9.30
2023-01-17T04:26:40.066Z,9.40
2023-01-17T04:29:08.799Z,9.40
2023-01-17T04:31:38.785Z,9.38
2023-01-17T04:34:09.027Z,10.58
2023-01-17T04:36:38.330Z,9.68
2023-01-17T04:39:07.460Z,9.85
2023-01-17T04:41:38.687Z,10.40
2023-01-17T04:44:10.475Z,10.28
2023-01-17T04:46:39.663Z,10.48
2023-01-17T04:49:09.553Z,10.20
2023-01-17T04:51:38.776Z,10.25
2023-01-17T04:54:07.914Z,11.40
2023-01-17T04:56:37.243Z,10.15
2023-01-17T04:59:06.684Z,9.85
2023-01-17T05:01:36.664Z,10.43
2023-01-17T05:04:07.170Z,10.75
2023-01-17T05:06:37.741Z,11.75
2023-01-17T05:09:07.239Z,10.45
2023-01-17T05:11:37.674Z,10.82
2023-01-17T05:14:07.410Z,11.50
2023-01-17T05:16:37.497Z,10.80
2023-01-17T05:19:06.860Z,11.65
2023-01-17T05:21:36.705Z,11.30
2023-01-17T05:24:07.428Z,11.88
2023-01-17T05:26:37.247Z,11.57
2023-01-17T05:29:06.900Z,11.50
2023-01-17T05:31:37.492Z,12.23
2023-01-17T05:34:07.403Z,12.90
2023-01-17T05:36:39.661Z,11.95
2023-01-17T05:39:08.936Z,12.95
2023-01-17T05:41:38.655Z,11.50
2023-01-17T05:44:07.836Z,13.05
2023-01-17T05:46:37.859Z,13.80
2023-01-17T05:49:06.823Z,13.18
2023-01-17T05:51:39.534Z,13.35
2023-01-17T05:54:09.585Z,12.88
2023-01-17T05:56:39.037Z,13.60
2023-01-17T05:59:08.134Z,14.15
2023-01-17T06:01:37.496Z,13.70
2023-01-17T06:04:07.160Z,14.58
2023-01-17T06:06:37.622Z,13.70
2023-01-17T06:09:06.833Z,14.90
2023-01-17T06:11:36.523Z,14.93
2023-01-17T06:14:05.972Z,15.50
2023-01-17T06:16:36.085Z,15.30
2023-01-17T06:19:06.218Z,15.18
2023-01-17T06:21:36.309Z,14.55
2023-01-17T06:24:07.211Z,15.03
2023-01-17T06:26:36.933Z,16.67
2023-01-17T06:29:06.206Z,16.15
2023-01-17T06:31:35.334Z,14.75
2023-01-17T06:34:04.651Z,15.10
2023-01-17T06:36:33.762Z,15.80
2023-01-17T06:39:04.629Z,16.07
2023-01-17T06:41:34.318Z,15.68
2023-01-17T06:44:03.344Z,14.50
2023-01-17T06:46:33.220Z,15.53
2023-01-17T06:49:02.535Z,15.28
2023-01-17T06:51:31.538Z,15.05
2023-01-17T06:54:02.012Z,15.03
2023-01-17T06:56:34.576Z,15.15
2023-01-17T06:59:04.090Z,15.18
2023-01-17T07:01:35.017Z,14.98
2023-01-17T07:04:07.146Z,14.33
2023-01-17T07:06:39.161Z,15.45
2023-01-17T07:09:09.467Z,15.15
2023-01-17T07:11:38.779Z,15.80
2023-01-17T07:14:16.738Z,16.32
2023-01-17T07:16:48.154Z,14.00
2023-01-17T07:19:17.638Z,14.23
2023-01-17T07:21:46.479Z,16.02
2023-01-17T07:24:15.127Z,16.25
2023-01-17T07:26:44.927Z,16.45
2023-01-17T07:29:14.097Z,14.78
2023-01-17T07:31:43.502Z,15.68
2023-01-17T07:34:13.239Z,14.75
2023-01-17T07:36:42.866Z,14.83
2023-01-17T07:39:13.062Z,15.85
2023-01-17T07:41:43.701Z,14.98
2023-01-17T07:44:14.024Z,14.98
2023-01-17T07:46:42.955Z,14.63
2023-01-17T07:49:12.120Z,16.05
2023-01-17T07:51:41.713Z,15.10
2023-01-17T07:54:12.576Z,15.48
2023-01-17T07:56:44.085Z,16.55
2023-01-17T07:59:17.009Z,15.95
2023-01-17T08:01:47.177Z,16.60
2023-01-17T08:04:17.394Z,17.27
2023-01-17T08:06:48.397Z,16.85
2023-01-17T08:09:18.119Z,15.85
2023-01-17T08:11:48.339Z,16.82
2023-01-17T08:14:17.420Z,15.72
2023-01-17T08:16:48.170Z,16.12
2023-01-17T08:19:17.395Z,14.87
2023-01-17T08:21:46.894Z,16.40
2023-01-17T08:24:17.262Z,16.37
2023-01-17T08:26:46.851Z,16.40
2023-01-17T08:29:15.828Z,15.75
2023-01-17T08:31:44.805Z,14.70
2023-01-17T08:34:15.457Z,16.73
2023-01-17T08:36:47.725Z,15.70
2023-01-17T08:39:17.390Z,16.75
2023-01-17T08:41:48.250Z,17.12
2023-01-17T08:44:18.718Z,16.48
2023-01-17T08:46:49.483Z,16.30
2023-01-17T08:49:20.499Z,16.82
2023-01-17T08:51:52.166Z,16.55
2023-01-17T08:54:22.915Z,15.63
2023-01-17T08:56:52.914Z,16.75
2023-01-17T08:59:23.285Z,15.53
2023-01-17T09:01:54.931Z,16.87
2023-01-17T09:04:25.562Z,16.40
2023-01-17T09:06:54.342Z,16.82
2023-01-17T09:09:25.232Z,15.20
2023-01-17T09:11:54.121Z,15.95
2023-01-17T09:14:23.194Z,16.37
2023-01-17T09:16:52.578Z,16.87
2023-01-17T09:19:22.305Z,16.97
2023-01-17T09:21:51.365Z,17.23
2023-01-17T09:24:20.349Z,17.37
2023-01-17T09:26:49.925Z,18.35
2023-01-17T09:29:19.472Z,17.90
2023-01-17T09:31:49.316Z,16.85
2023-01-17T09:34:20.357Z,17.17
2023-01-17T09:36:49.464Z,17.40
2023-01-17T09:39:18.513Z,16.20
2023-01-17T09:42:18.601Z,17.10
2023-01-17T09:44:54.565Z,16.25
2023-01-17T09:47:49.042Z,16.97
2023-01-17T09:50:40.421Z,15.95
2023-01-17T09:53:16.128Z,16.62
2023-01-17T09:56:01.180Z,16.42
2023-01-17T09:58:46.359Z,16.90
2023-01-17T10:01:39.999Z,17.37
2023-01-17T10:04:26.326Z,24.00
2023-01-17T10:07:35.764Z,17.37
2023-01-17T10:10:37.056Z,16.77
2023-01-17T10:13:36.053Z,15.60
2023-01-17T10:16:19.773Z,16.23
2023-01-17T10:19:20.719Z,17.27
2023-01-17T10:22:09.977Z,16.45
2023-01-17T10:25:03.657Z,17.60
2023-01-17T10:27:37.201Z,17.32
2023-01-17T10:30:17.857Z,16.32
2023-01-17T10:32:49.360Z,16.87
2023-01-17T10:35:26.489Z,17.40
2023-01-17T10:40:45.137Z,17.27
2023-01-17T10:43:55.733Z,19.42
2023-01-17T10:46:34.979Z,17.65
2023-01-17T10:49:05.708Z,18.65
2023-01-17T10:51:58.339Z,20.23
2023-01-17T10:55:09.613Z,18.05
2023-01-17T10:57:45.685Z,18.65
2023-01-17T11:00:50.649Z,18.10
2023-01-17T11:03:23.870Z,19.12
2023-01-17T11:06:17.900Z,18.45
2023-01-17T11:08:57.432Z,20.08
2023-01-17T11:11:31.876Z,20.90
2023-01-17T11:14:08.369Z,20.92
2023-01-17T11:17:02.257Z,18.42
2023-01-17T11:19:34.777Z,19.25
2023-01-17T11:22:07.422Z,18.55
2023-01-17T11:24:51.683Z,17.75
2023-01-17T11:27:31.097Z,18.32
2023-01-17T11:30:20.463Z,18.50
2023-01-17T11:33:01.184Z,18.10
2023-01-17T11:35:33.764Z,16.80
2023-01-17T11:38:22.067Z,18.73
2023-01-17T11:40:57.993Z,17.70
2023-01-17T11:43:29.586Z,20.25
2023-01-17T11:46:06.418Z,19.62
2023-01-17T11:48:40.019Z,20.85
2023-01-17T11:51:32.554Z,19.00
2023-01-17T11:54:25.469Z,19.73
2023-01-17T11:57:00.851Z,20.68
2023-01-17T11:59:37.461Z,19.85
2023-01-17T12:02:40.447Z,19.73
2023-01-17T12:05:42.494Z,19.57
2023-01-17T12:08:50.527Z,19.82
2023-01-17T12:12:13.442Z,19.55
2023-01-17T12:14:57.866Z,21.48
2023-01-17T12:17:32.566Z,19.17
2023-01-17T12:20:09.218Z,19.17
2023-01-17T12:25:55.082Z,18.48
2023-01-17T12:28:41.310Z,18.95
2023-01-17T12:31:22.157Z,18.70
2023-01-17T12:33:59.335Z,19.23
2023-01-17T12:36:53.704Z,18.98
2023-01-17T12:39:26.704Z,18.62
2023-01-17T12:42:18.502Z,18.67
2023-01-17T12:45:06.266Z,19.48
2023-01-17T12:50:30.504Z,19.00
2023-01-17T12:53:07.320Z,18.48
2023-01-17T12:56:02.212Z,18.70
2023-01-17T12:58:44.989Z,18.17
2023-01-17T13:01:27.371Z,17.90
2023-01-17T13:04:18.975Z,19.80
2023-01-17T13:07:14.767Z,18.32
2023-01-17T13:09:54.200Z,17.75
2023-01-17T13:12:25.853Z,19.45
2023-01-17T13:14:56.121Z,18.10
2023-01-17T13:17:43.849Z,18.80
2023-01-17T13:23:21.166Z,19.40
2023-01-17T13:25:52.370Z,18.42
2023-01-17T13:29:02.886Z,16.95
2023-01-17T13:31:49.609Z,18.20
2023-01-17T13:38:37.090Z,18.70
2023-01-17T13:41:38.835Z,18.57
2023-01-17T13:44:25.189Z,17.20
2023-01-17T13:47:01.694Z,18.80
2023-01-17T13:49:50.343Z,18.05
2023-01-17T13:52:33.077Z,18.70
2023-01-17T13:55:04.561Z,18.25
2023-01-17T13:57:42.306Z,20.62
2023-01-17T14:00:30.759Z,19.05
2023-01-17T14:03:15.390Z,17.80
2023-01-17T14:06:11.558Z,18.77
2023-01-17T14:09:24.830Z,18.37
2023-01-17T14:12:30.334Z,18.90
2023-01-17T14:15:02.211Z,18.32
2023-01-17T14:17:56.912Z,17.48
2023-01-17T14:20:49.323Z,19.27
2023-01-17T14:23:28.750Z,17.95
2023-01-17T14:26:03.091Z,20.10
2023-01-17T14:28:34.197Z,18.73
2023-01-17T14:31:09.871Z,20.77
2023-01-17T14:33:43.237Z,21.55
2023-01-17T14:36:29.664Z,22.35
2023-01-17T14:38:59.290Z,21.10
2023-01-17T14:41:30.552Z,20.05
2023-01-17T14:44:01.905Z,19.65
2023-01-17T14:46:34.246Z,19.60
2023-01-17T14:49:07.463Z,19.95
2023-01-17T14:51:39.002Z,20.48
2023-01-17T14:54:26.597Z,19.75
2023-01-17T14:57:27.952Z,19.17
2023-01-17T15:00:21.896Z,19.37
2023-01-17T15:02:54.313Z,20.40
2023-01-17T15:05:25.339Z,19.87
2023-01-17T15:08:02.093Z,21.02
2023-01-17T15:10:33.717Z,20.88
2023-01-17T15:13:09.371Z,21.48
2023-01-17T15:15:42.930Z,21.15
2023-01-17T15:18:27.451Z,21.55
2023-01-17T15:21:06.881Z,20.62
2023-01-17T15:23:43.451Z,21.37
2023-01-17T15:26:22.271Z,21.48
2023-01-17T15:29:00.587Z,20.75
2023-01-17T15:31:46.489Z,20.85
2023-01-17T15:34:41.943Z,19.35
2023-01-17T15:37:33.763Z,24.40
2023-01-17T15:40:19.188Z,19.05
2023-01-17T15:42:57.967Z,18.87
2023-01-17T15:45:31.163Z,18.23
2023-01-17T15:48:33.549Z,19.07
2023-01-17T15:51:02.688Z,18.87
2023-01-17T15:53:36.387Z,19.20
2023-01-17T15:56:32.756Z,18.25
2023-01-17T15:59:41.386Z,18.90
2023-01-17T16:05:19.180Z,18.23
2023-01-17T16:07:57.018Z,18.30
2023-01-17T16:10:28.962Z,18.02
2023-01-17T16:12:58.101Z,17.65
2023-01-17T16:15:27.351Z,17.85
2023-01-17T16:18:01.153Z,18.42
2023-01-17T16:20:41.174Z,18.42
2023-01-17T16:23:11.764Z,17.02
2023-01-17T16:25:41.561Z,17.35
2023-01-17T16:28:13.323Z,18.23
2023-01-17T16:30:44.399Z,17.23
2023-01-17T16:33:14.486Z,16.93
2023-01-17T16:35:43.588Z,17.60
2023-01-17T16:38:15.451Z,17.95
2023-01-17T16:40:45.751Z,17.67
2023-01-17T16:43:16.823Z,17.92
2023-01-17T16:45:52.566Z,16.85
2023-01-17T16:48:23.030Z,17.07
2023-01-17T16:50:52.657Z,17.90
2023-01-17T16:53:25.379Z,16.80
2023-01-17T16:55:58.071Z,18.02
2023-01-17T16:58:27.830Z,17.87
2023-01-17T17:00:57.542Z,17.10
2023-01-17T17:03:26.485Z,17.30
2023-01-17T17:05:58.693Z,17.35
2023-01-17T17:08:30.067Z,18.42
2023-01-17T17:11:18.065Z,17.32
2023-01-17T17:13:49.359Z,21.50
2023-01-17T17:16:26.185Z,17.65
2023-01-17T17:18:59.447Z,17.82
2023-01-17T17:21:30.916Z,19.25
2023-01-17T17:24:02.057Z,20.20
2023-01-17T17:26:36.198Z,19.45
2023-01-17T17:29:07.232Z,17.92
2023-01-17T17:31:37.755Z,17.35
2023-01-17T17:34:10.202Z,18.25
2023-01-17T17:36:41.392Z,17.85
2023-01-17T17:39:18.419Z,17.45
2023-01-17T17:41:51.303Z,16.52
2023-01-17T17:44:21.663Z,17.75
2023-01-17T17:46:52.750Z,16.62
2023-01-17T17:49:23.014Z,16.73
2023-01-17T17:51:52.911Z,16.02
2023-01-17T17:54:22.261Z,16.52
2023-01-17T17:56:53.703Z,16.27
2023-01-17T17:59:23.863Z,16.25
2023-01-17T18:01:53.631Z,16.70
2023-01-17T18:04:23.039Z,16.48
2023-01-17T18:06:54.089Z,16.27
2023-01-17T18:09:23.180Z,16.70
2023-01-17T18:11:52.183Z,15.63
2023-01-17T18:14:22.927Z,15.25
2023-01-17T18:16:53.286Z,15.80
2023-01-17T18:19:24.722Z,16.37
2023-01-17T18:21:54.629Z,16.00
2023-01-17T18:24:25.181Z,16.37
2023-01-17T18:26:57.360Z,17.02
2023-01-17T18:29:28.804Z,16.12
2023-01-17T18:31:58.133Z,16.32
2023-01-17T18:34:29.567Z,15.05
2023-01-17T18:36:58.967Z,16.52
2023-01-17T18:39:29.448Z,15.43
2023-01-17T18:41:59.569Z,16.67
2023-01-17T18:44:30.818Z,17.15
2023-01-17T18:47:04.546Z,16.80
2023-01-17T18:49:36.004Z,17.85
2023-01-17T18:52:07.871Z,18.20
2023-01-17T18:54:39.345Z,17.85
2023-01-17T18:57:10.232Z,20.00
2023-01-17T18:59:44.504Z,19.50
2023-01-17T19:02:15.597Z,17.82
2023-01-17T19:04:47.726Z,17.27
2023-01-17T19:07:18.073Z,16.73
2023-01-17T19:09:50.420Z,16.12
2023-01-17T19:12:21.556Z,15.75
2023-01-17T19:14:52.765Z,15.25
2023-01-17T19:17:23.903Z,15.25
2023-01-17T19:19:57.103Z,15.90
2023-01-17T19:22:29.948Z,15.63
2023-01-17T19:24:59.540Z,16.10
2023-01-17T19:27:29.126Z,14.10
2023-01-17T19:29:59.723Z,15.30
2023-01-17T19:32:29.035Z,15.15
2023-01-17T19:34:58.998Z,15.18
2023-01-17T19:37:28.236Z,14.83
2023-01-17T19:39:57.539Z,15.05
2023-01-17T19:42:28.930Z,14.70
2023-01-17T19:44:58.911Z,15.03
2023-01-17T19:47:28.325Z,16.23
2023-01-17T19:49:58.697Z,15.55
2023-01-17T19:52:29.649Z,15.38
2023-01-17T19:54:59.939Z,15.28
2023-01-17T19:57:33.034Z,15.85
2023-01-17T20:00:04.371Z,15.13
2023-01-17T20:02:37.446Z,15.93
2023-01-17T20:05:07.891Z,15.23
2023-01-17T20:07:39.085Z,15.85
2023-01-17T20:10:10.780Z,15.23
2023-01-17T20:12:39.662Z,15.32
2023-01-17T20:15:09.893Z,14.65
2023-01-17T20:17:39.231Z,14.65
2023-01-17T20:20:13.832Z,15.03
2023-01-17T20:22:44.795Z,15.98
2023-01-17T20:25:15.058Z,14.63
2023-01-17T20:27:44.584Z,13.70
2023-01-17T20:30:20.231Z,15.15
2023-01-17T20:32:46.922Z,14.45
2023-01-17T20:35:17.880Z,15.30
2023-01-17T20:37:50.643Z,16.15
2023-01-17T20:40:20.106Z,15.93
2023-01-17T20:42:49.713Z,15.58
2023-01-17T20:45:19.350Z,16.35
2023-01-17T20:47:51.942Z,15.60
2023-01-17T20:50:22.403Z,15.35
2023-01-17T20:52:51.487Z,15.18
2023-01-17T20:55:20.624Z,14.38
2023-01-17T20:57:50.455Z,15.93
2023-01-17T21:00:21.004Z,15.32
2023-01-17T21:02:50.121Z,16.32
2023-01-17T21:05:19.433Z,15.45
2023-01-17T21:07:49.009Z,15.68
2023-01-17T21:10:20.555Z,14.98
2023-01-17T21:12:49.728Z,15.93
2023-01-17T21:15:20.356Z,16.27
2023-01-17T21:17:50.544Z,16.07
2023-01-17T21:20:20.169Z,15.30
2023-01-17T21:22:49.795Z,14.98
2023-01-17T21:25:19.923Z,15.58
2023-01-17T21:27:52.113Z,16.17
2023-01-17T21:30:21.278Z,15.95
2023-01-17T21:32:50.786Z,16.57
2023-01-17T21:35:20.209Z,15.05
2023-01-17T21:37:52.303Z,16.57
2023-01-17T21:40:21.971Z,14.85
2023-01-17T21:42:53.044Z,16.07
2023-01-17T21:45:25.470Z,15.78
2023-01-17T21:47:54.844Z,14.93
2023-01-17T21:50:33.036Z,15.85
2023-01-17T21:52:56.106Z,16.23
2023-01-17T21:55:44.408Z,14.47
2023-01-17T21:58:33.613Z,15.60
